createdAt,value
2023-05-05T00:00:12.335Z,2.65
2023-05-05T00:02:40.693Z,3.25
2023-05-05T00:05:08.358Z,2.97
2023-05-05T00:07:35.531Z,2.45
2023-05-05T00:10:02.881Z,2.60
2023-05-05T00:12:30.337Z,2.25
2023-05-05T00:14:57.740Z,2.65
2023-05-05T00:17:24.955Z,2.53
2023-05-05T00:19:52.409Z,2.85
2023-05-05T00:22:19.711Z,2.42
2023-05-05T00:24:47.108Z,2.10
2023-05-05T00:27:14.213Z,2.42
2023-05-05T00:29:41.751Z,2.63
2023-05-05T00:32:09.095Z,2.42
2023-05-05T00:34:36.244Z,2.40
2023-05-05T00:37:03.965Z,2.25
2023-05-05T00:39:31.184Z,2.40
2023-05-05T00:41:59.685Z,2.63
2023-05-05T00:44:38.356Z,2.33
2023-05-05T00:47:06.348Z,2.60
2023-05-05T00:49:34.764Z,2.20
2023-05-05T00:52:03.727Z,2.53
2023-05-05T00:54:31.026Z,2.60
2023-05-05T00:56:58.360Z,2.35
2023-05-05T00:59:25.920Z,2.42
2023-05-05T01:01:53.228Z,2.30
2023-05-05T01:04:20.407Z,2.47
2023-05-05T01:07:07.977Z,2.63
2023-05-05T01:09:44.132Z,2.20
2023-05-05T01:12:27.395Z,2.28
2023-05-05T01:15:05.885Z,2.67
2023-05-05T01:17:41.959Z,2.35
2023-05-05T01:20:19.104Z,2.10
2023-05-05T01:22:51.144Z,2.60
2023-05-05T01:25:35.677Z,2.92
2023-05-05T01:28:31.746Z,2.85
2023-05-05T01:31:06.559Z,2.67
2023-05-05T01:33:44.144Z,2.63
2023-05-05T01:36:22.867Z,2.28
2023-05-05T01:38:57.425Z,2.50
2023-05-05T01:41:30.431Z,2.40
2023-05-05T01:44:03.613Z,2.50
2023-05-05T01:46:33.222Z,2.55
2023-05-05T01:49:00.512Z,2.40
2023-05-05T01:51:28.846Z,2.28
2023-05-05T01:53:59.951Z,2.17
2023-05-05T01:56:28.971Z,2.70
2023-05-05T01:58:57.102Z,2.42
2023-05-05T02:01:27.025Z,2.30
2023-05-05T02:03:57.261Z,2.65
2023-05-05T02:06:27.021Z,2.53
2023-05-05T02:08:58.554Z,2.47
2023-05-05T02:11:28.172Z,2.40
2023-05-05T02:13:57.180Z,2.58
2023-05-05T02:16:25.185Z,2.40
2023-05-05T02:18:54.590Z,2.70
2023-05-05T02:21:22.970Z,2.35
2023-05-05T02:23:52.163Z,2.97
2023-05-05T02:26:22.057Z,2.83
2023-05-05T02:28:55.596Z,2.40
2023-05-05T02:33:54.488Z,2.20
2023-05-05T02:36:27.922Z,2.35
2023-05-05T02:39:04.695Z,2.22
2023-05-05T02:41:39.611Z,2.30
2023-05-05T02:44:15.337Z,2.55
2023-05-05T02:46:44.313Z,2.40
2023-05-05T02:49:11.475Z,2.20
2023-05-05T02:51:40.346Z,2.13
2023-05-05T02:54:15.940Z,2.40
2023-05-05T02:56:49.009Z,2.50
2023-05-05T02:59:32.805Z,2.00
2023-05-05T03:02:05.435Z,2.30
2023-05-05T03:04:40.352Z,2.63
2023-05-05T03:07:14.553Z,2.10
2023-05-05T03:09:57.232Z,2.17
2023-05-05T03:12:34.043Z,2.70
2023-05-05T03:15:14.399Z,2.33
2023-05-05T03:17:44.542Z,2.22
2023-05-05T03:20:13.037Z,2.00
2023-05-05T03:22:43.508Z,2.00
2023-05-05T03:25:13.604Z,1.90
2023-05-05T03:27:41.582Z,2.00
2023-05-05T03:30:10.449Z,2.20
2023-05-05T03:32:45.784Z,1.80
2023-05-05T03:35:13.851Z,1.85
2023-05-05T03:37:41.357Z,2.40
2023-05-05T03:40:09.598Z,1.88
2023-05-05T03:42:37.013Z,1.63
2023-05-05T03:45:04.829Z,1.75
2023-05-05T03:47:32.155Z,2.10
2023-05-05T03:50:00.852Z,2.17
2023-05-05T03:52:29.049Z,2.17
2023-05-05T03:54:56.368Z,2.00
2023-05-05T03:57:23.650Z,1.90
2023-05-05T03:59:50.969Z,2.05
2023-05-05T04:02:18.900Z,2.17
2023-05-05T04:04:47.238Z,1.85
2023-05-05T04:07:15.045Z,1.83
2023-05-05T04:09:44.765Z,2.03
2023-05-05T04:12:13.196Z,2.08
2023-05-05T04:14:40.921Z,1.98
2023-05-05T04:17:09.414Z,1.77
2023-05-05T04:19:36.752Z,1.95
2023-05-05T04:22:04.485Z,1.60
2023-05-05T04:24:31.854Z,1.50
2023-05-05T04:26:59.835Z,1.67
2023-05-05T04:29:29.072Z,1.70
2023-05-05T04:31:56.919Z,1.50
2023-05-05T04:34:24.555Z,1.60
2023-05-05T04:36:52.252Z,1.75
2023-05-05T04:39:20.742Z,1.90
2023-05-05T04:41:48.377Z,1.95
2023-05-05T04:44:16.003Z,1.80
2023-05-05T04:46:43.437Z,2.08
2023-05-05T04:49:11.128Z,1.73
2023-05-05T04:51:42.433Z,1.63
2023-05-05T04:54:09.674Z,1.83
2023-05-05T04:56:37.247Z,1.73
2023-05-05T04:59:04.511Z,1.80
2023-05-05T05:01:31.833Z,1.70
2023-05-05T05:03:59.277Z,1.88
2023-05-05T05:06:27.269Z,1.77
2023-05-05T05:08:54.511Z,1.90
2023-05-05T05:11:22.299Z,1.70
2023-05-05T05:13:49.807Z,1.80
2023-05-05T05:16:16.941Z,2.30
2023-05-05T05:18:44.253Z,1.77
2023-05-05T05:21:12.163Z,1.80
2023-05-05T05:23:39.373Z,1.60
2023-05-05T05:26:07.649Z,1.75
2023-05-05T05:28:36.074Z,1.77
2023-05-05T05:31:03.338Z,1.85
2023-05-05T05:33:31.058Z,1.77
2023-05-05T05:35:59.463Z,2.08
2023-05-05T05:38:27.321Z,1.85
2023-05-05T05:40:58.878Z,1.90
2023-05-05T05:43:26.276Z,1.90
2023-05-05T05:45:53.627Z,1.80
2023-05-05T05:48:22.304Z,2.00
2023-05-05T05:50:49.634Z,1.85
2023-05-05T05:53:17.983Z,2.00
2023-05-05T05:55:46.929Z,1.88
2023-05-05T05:58:16.741Z,2.40
2023-05-05T06:00:43.999Z,1.95
2023-05-05T06:03:12.550Z,1.75
2023-05-05T06:05:39.981Z,1.90
2023-05-05T06:08:07.416Z,2.05
2023-05-05T06:10:40.128Z,1.70
2023-05-05T06:13:12.359Z,2.05
2023-05-05T06:15:45.286Z,2.10
2023-05-05T06:18:14.376Z,2.40
2023-05-05T06:20:43.623Z,1.85
2023-05-05T06:23:13.001Z,2.20
2023-05-05T06:25:45.001Z,2.05
2023-05-05T06:28:12.211Z,2.00
2023-05-05T06:30:39.422Z,2.05
2023-05-05T06:33:06.705Z,1.80
2023-05-05T06:35:33.928Z,1.98
2023-05-05T06:38:01.278Z,1.75
2023-05-05T06:40:28.457Z,1.80
2023-05-05T06:42:55.833Z,2.22
2023-05-05T06:45:28.457Z,2.03
2023-05-05T06:47:55.751Z,2.00
2023-05-05T06:50:22.963Z,2.33
2023-05-05T06:52:50.284Z,1.90
2023-05-05T06:55:18.176Z,1.95
2023-05-05T06:57:45.415Z,2.03
2023-05-05T07:00:14.265Z,1.98
2023-05-05T07:02:41.827Z,2.03
2023-05-05T07:05:09.401Z,1.65
2023-05-05T07:07:37.230Z,1.98
2023-05-05T07:10:04.942Z,2.00
2023-05-05T07:12:32.227Z,1.90
2023-05-05T07:15:00.004Z,2.00
2023-05-05T07:17:29.132Z,2.00
2023-05-05T07:19:56.523Z,2.00
2023-05-05T07:22:23.780Z,1.90
2023-05-05T07:24:53.469Z,1.83
2023-05-05T07:27:22.540Z,2.00
2023-05-05T07:29:49.719Z,1.90
2023-05-05T07:32:17.259Z,1.83
2023-05-05T07:34:44.445Z,2.00
2023-05-05T07:37:11.650Z,1.98
2023-05-05T07:39:38.794Z,2.08
2023-05-05T07:42:07.394Z,2.10
2023-05-05T07:44:34.568Z,2.10
2023-05-05T07:47:01.971Z,2.00
2023-05-05T07:49:29.127Z,1.77
2023-05-05T07:51:56.696Z,2.00
2023-05-05T07:54:24.016Z,1.75
2023-05-05T07:56:51.355Z,1.83
2023-05-05T07:59:18.465Z,1.67
2023-05-05T08:01:45.846Z,2.35
2023-05-05T08:04:13.051Z,2.00
2023-05-05T08:06:40.509Z,2.13
2023-05-05T08:09:07.871Z,2.25
2023-05-05T08:11:35.166Z,1.98
2023-05-05T08:14:02.299Z,1.80
2023-05-05T08:16:29.576Z,2.08
2023-05-05T08:18:56.799Z,1.88
2023-05-05T08:21:24.039Z,2.22
2023-05-05T08:23:51.187Z,2.28
2023-05-05T08:26:18.516Z,2.50
2023-05-05T08:28:46.928Z,2.60
2023-05-05T08:31:14.187Z,2.50
2023-05-05T08:33:41.538Z,2.20
2023-05-05T08:36:09.182Z,1.90
2023-05-05T08:38:36.671Z,2.20
2023-05-05T08:41:04.132Z,2.03
2023-05-05T08:43:31.378Z,2.17
2023-05-05T08:45:59.253Z,1.85
2023-05-05T08:48:29.639Z,1.63
2023-05-05T08:51:01.916Z,2.10
2023-05-05T08:53:36.288Z,2.03
2023-05-05T08:56:05.834Z,1.90
2023-05-05T08:58:36.613Z,1.90
2023-05-05T09:01:05.593Z,1.83
2023-05-05T09:03:33.855Z,2.08
2023-05-05T09:06:01.345Z,1.70
2023-05-05T09:08:29.651Z,1.90
2023-05-05T09:10:57.176Z,2.30
2023-05-05T09:13:24.385Z,1.95
2023-05-05T09:15:51.623Z,1.80
2023-05-05T09:18:18.806Z,2.35
2023-05-05T09:20:46.172Z,2.38
2023-05-05T09:23:16.247Z,1.92
2023-05-05T09:25:46.176Z,1.80
2023-05-05T09:28:16.608Z,2.22
2023-05-05T09:30:46.354Z,2.10
2023-05-05T09:33:14.271Z,1.70
2023-05-05T09:35:52.316Z,2.20
2023-05-05T09:38:20.855Z,1.80
2023-05-05T09:40:50.869Z,1.95
2023-05-05T09:43:19.888Z,1.90
2023-05-05T09:45:48.890Z,1.60
2023-05-05T09:48:19.574Z,1.77
2023-05-05T09:50:47.234Z,1.83
2023-05-05T09:53:14.750Z,1.50
2023-05-05T09:55:42.496Z,1.83
2023-05-05T09:58:13.438Z,1.98
2023-05-05T10:00:41.018Z,1.92
2023-05-05T10:03:08.194Z,2.10
2023-05-05T10:05:49.288Z,2.08
2023-05-05T10:08:18.214Z,2.25
2023-05-05T10:10:49.459Z,2.00
2023-05-05T10:13:19.735Z,1.80
2023-05-05T10:15:49.840Z,2.00
2023-05-05T10:18:22.238Z,1.80
2023-05-05T10:20:58.347Z,1.80
2023-05-05T10:23:30.541Z,2.08
2023-05-05T10:26:03.730Z,1.92
2023-05-05T10:28:34.270Z,1.80
2023-05-05T10:31:09.828Z,1.83
2023-05-05T10:33:53.369Z,1.58
2023-05-05T10:36:20.951Z,1.60
2023-05-05T10:38:50.856Z,1.90
2023-05-05T10:41:19.749Z,2.10
2023-05-05T10:43:48.192Z,2.15
2023-05-05T10:46:16.079Z,1.98
2023-05-05T10:48:51.578Z,1.60
2023-05-05T10:51:39.199Z,1.70
2023-05-05T10:54:12.592Z,1.90
2023-05-05T10:56:42.161Z,1.88
2023-05-05T10:59:12.861Z,2.17
2023-05-05T11:01:40.245Z,1.88
2023-05-05T11:04:10.538Z,1.60
2023-05-05T11:06:37.731Z,1.60
2023-05-05T11:09:26.429Z,1.42
2023-05-05T11:11:57.271Z,1.70
2023-05-05T11:14:24.508Z,1.70
2023-05-05T11:16:51.845Z,1.67
2023-05-05T11:19:22.148Z,1.55
2023-05-05T11:21:52.905Z,1.88
2023-05-05T11:24:28.544Z,1.67
2023-05-05T11:26:56.307Z,1.90
2023-05-05T11:29:23.485Z,1.67
2023-05-05T11:31:53.796Z,1.45
2023-05-05T11:34:25.210Z,1.75
2023-05-05T11:36:54.317Z,1.67
2023-05-05T11:39:27.648Z,1.70
2023-05-05T11:41:57.896Z,1.45
2023-05-05T11:44:34.034Z,1.75
2023-05-05T11:47:04.539Z,1.77
2023-05-05T11:49:34.401Z,1.50
2023-05-05T11:52:05.502Z,1.83
2023-05-05T11:54:35.125Z,1.67
2023-05-05T11:57:05.518Z,1.60
2023-05-05T11:59:33.965Z,1.58
2023-05-05T12:02:01.455Z,1.70
2023-05-05T12:04:28.865Z,1.70
2023-05-05T12:06:56.257Z,1.50
2023-05-05T12:09:24.377Z,1.60
2023-05-05T12:11:53.621Z,1.50
2023-05-05T12:14:21.696Z,1.77
2023-05-05T12:16:52.084Z,1.67
2023-05-05T12:19:19.349Z,1.65
2023-05-05T12:21:46.553Z,1.52
2023-05-05T12:24:13.959Z,1.40
2023-05-05T12:26:41.315Z,1.55
2023-05-05T12:29:08.573Z,1.42
2023-05-05T12:31:37.681Z,1.27
2023-05-05T12:34:06.648Z,1.83
2023-05-05T12:36:34.724Z,1.70
2023-05-05T12:39:02.740Z,1.90
2023-05-05T12:41:29.892Z,1.65
2023-05-05T12:43:58.977Z,1.80
2023-05-05T12:46:26.933Z,1.55
2023-05-05T12:48:57.231Z,1.45
2023-05-05T12:51:24.444Z,1.55
2023-05-05T12:53:54.835Z,1.58
2023-05-05T12:56:25.219Z,1.67
2023-05-05T12:58:52.397Z,1.55
2023-05-05T13:01:19.746Z,1.60
2023-05-05T13:03:47.420Z,2.10
2023-05-05T13:06:17.592Z,1.58
2023-05-05T13:08:45.067Z,1.40
2023-05-05T13:11:12.304Z,1.88
2023-05-05T13:13:39.560Z,1.70
2023-05-05T13:16:07.749Z,1.73
2023-05-05T13:18:45.727Z,1.70
2023-05-05T13:21:13.231Z,1.60
2023-05-05T13:23:44.065Z,1.80
2023-05-05T13:26:12.450Z,1.65
2023-05-05T13:28:40.705Z,1.63
2023-05-05T13:31:08.493Z,1.25
2023-05-05T13:33:36.150Z,1.58
2023-05-05T13:36:03.839Z,1.83
2023-05-05T13:38:33.184Z,2.00
2023-05-05T13:41:00.759Z,1.77
2023-05-05T13:43:27.993Z,1.70
2023-05-05T13:46:05.671Z,1.77
2023-05-05T13:48:36.181Z,1.70
2023-05-05T13:51:03.291Z,1.40
2023-05-05T13:53:32.008Z,1.58
2023-05-05T13:55:59.469Z,2.00
2023-05-05T13:58:26.758Z,1.70
2023-05-05T14:00:55.473Z,1.80
2023-05-05T14:03:24.001Z,1.73
2023-05-05T14:05:51.395Z,1.55
2023-05-05T14:08:20.056Z,1.60
2023-05-05T14:10:48.091Z,2.10
2023-05-05T14:13:16.975Z,1.35
2023-05-05T14:15:44.078Z,1.67
2023-05-05T14:18:11.589Z,1.40
2023-05-05T14:20:38.759Z,1.40
2023-05-05T14:23:06.070Z,1.65
2023-05-05T14:25:33.347Z,1.30
2023-05-05T14:28:00.688Z,1.50
2023-05-05T14:30:27.878Z,1.85
2023-05-05T14:32:55.212Z,1.60
2023-05-05T14:35:22.488Z,1.35
2023-05-05T14:37:49.799Z,1.40
2023-05-05T14:40:17.018Z,1.30
2023-05-05T14:42:44.368Z,1.67
2023-05-05T14:45:11.843Z,1.70
2023-05-05T14:47:39.193Z,1.55
2023-05-05T14:50:09.688Z,1.60
2023-05-05T14:52:39.490Z,1.70
2023-05-05T14:55:07.705Z,1.70
2023-05-05T14:57:35.221Z,1.70
2023-05-05T15:00:02.468Z,1.85
2023-05-05T15:02:29.744Z,2.40
2023-05-05T15:04:56.906Z,1.95
2023-05-05T15:07:28.534Z,2.03
2023-05-05T15:09:56.569Z,2.30
2023-05-05T15:12:23.809Z,2.33
2023-05-05T15:14:51.148Z,2.40
2023-05-05T15:17:18.277Z,2.80
2023-05-05T15:19:45.659Z,3.38
2023-05-05T15:22:12.949Z,2.22
2023-05-05T15:24:40.271Z,2.40
2023-05-05T15:27:07.447Z,2.42
2023-05-05T15:29:34.786Z,2.00
2023-05-05T15:32:01.966Z,1.70
2023-05-05T15:34:29.218Z,1.80
2023-05-05T15:36:57.147Z,1.60
2023-05-05T15:39:24.397Z,1.80
2023-05-05T15:41:51.549Z,1.73
2023-05-05T15:44:18.871Z,1.38
2023-05-05T15:46:47.248Z,1.73
2023-05-05T15:49:16.354Z,1.77
2023-05-05T15:51:43.615Z,1.80
2023-05-05T15:54:11.008Z,1.77
2023-05-05T15:56:38.245Z,1.60
2023-05-05T15:59:05.629Z,1.42
2023-05-05T16:01:33.769Z,1.88
2023-05-05T16:04:01.343Z,1.85
2023-05-05T16:06:28.687Z,2.15
2023-05-05T16:08:58.660Z,1.70
2023-05-05T16:11:26.650Z,1.65
2023-05-05T16:13:54.223Z,2.20
2023-05-05T16:16:21.813Z,1.98
2023-05-05T16:18:49.217Z,1.88
2023-05-05T16:21:16.536Z,1.65
2023-05-05T16:23:43.846Z,1.90
2023-05-05T16:26:10.974Z,1.80
2023-05-05T16:28:38.778Z,2.10
2023-05-05T16:31:05.996Z,2.10
2023-05-05T16:33:33.286Z,1.80
2023-05-05T16:36:00.482Z,1.65
2023-05-05T16:38:27.728Z,1.70
2023-05-05T16:40:54.850Z,2.22
2023-05-05T16:43:22.054Z,1.70
2023-05-05T16:45:49.292Z,1.80
2023-05-05T16:48:18.490Z,2.00
2023-05-05T16:50:46.080Z,1.95
2023-05-05T16:53:13.653Z,2.22
2023-05-05T16:55:40.907Z,1.70
2023-05-05T16:58:08.394Z,1.80
2023-05-05T17:00:35.767Z,2.00
2023-05-05T17:03:03.168Z,2.40
2023-05-05T17:05:30.598Z,2.28
2023-05-05T17:07:58.002Z,2.45
2023-05-05T17:10:25.272Z,2.35
2023-05-05T17:12:52.886Z,2.00
2023-05-05T17:15:20.340Z,1.80
2023-05-05T17:17:47.711Z,2.20
2023-05-05T17:20:15.111Z,2.20
2023-05-05T17:22:42.582Z,2.15
2023-05-05T17:25:10.625Z,2.20
2023-05-05T17:27:38.861Z,2.10
2023-05-05T17:30:06.913Z,2.10
2023-05-05T17:32:34.308Z,2.17
2023-05-05T17:35:01.749Z,2.42
2023-05-05T17:37:29.531Z,2.10
2023-05-05T17:39:56.862Z,1.98
2023-05-05T17:42:27.109Z,2.03
2023-05-05T17:44:54.493Z,1.90
2023-05-05T17:47:22.582Z,2.28
2023-05-05T17:49:51.779Z,2.42
2023-05-05T17:52:19.022Z,2.10
2023-05-05T17:54:46.553Z,2.10
2023-05-05T17:57:14.006Z,1.90
2023-05-05T17:59:41.382Z,2.28
2023-05-05T18:02:08.795Z,2.35
2023-05-05T18:04:37.322Z,2.30
2023-05-05T18:07:05.016Z,1.95
2023-05-05T18:09:32.431Z,1.85
2023-05-05T18:11:59.842Z,1.98
2023-05-05T18:14:27.246Z,1.95
2023-05-05T18:16:54.588Z,2.10
2023-05-05T18:19:24.077Z,2.10
2023-05-05T18:21:53.134Z,1.80
2023-05-05T18:24:20.831Z,1.90
2023-05-05T18:26:51.105Z,2.20
2023-05-05T18:29:19.629Z,2.00
2023-05-05T18:31:49.135Z,2.30
2023-05-05T18:34:16.983Z,2.63
2023-05-05T18:36:46.437Z,2.33
2023-05-05T18:39:14.688Z,1.85
2023-05-05T18:41:42.157Z,2.20
2023-05-05T18:44:09.932Z,2.10
2023-05-05T18:46:37.232Z,2.30
2023-05-05T18:49:04.771Z,2.60
2023-05-05T18:51:32.389Z,2.05
2023-05-05T18:54:01.067Z,2.30
2023-05-05T18:56:28.604Z,2.15
2023-05-05T18:58:55.871Z,1.92
2023-05-05T19:01:24.014Z,2.40
2023-05-05T19:03:51.658Z,2.53
2023-05-05T19:06:19.133Z,2.40
2023-05-05T19:08:46.709Z,2.17
2023-05-05T19:11:15.280Z,2.38
2023-05-05T19:13:42.931Z,2.30
2023-05-05T19:16:11.519Z,2.47
2023-05-05T19:18:39.889Z,2.08
2023-05-05T19:21:07.407Z,2.35
2023-05-05T19:23:36.188Z,2.50
2023-05-05T19:26:04.089Z,2.72
2023-05-05T19:28:31.664Z,2.70
2023-05-05T19:30:59.077Z,2.25
2023-05-05T19:33:26.561Z,2.38
2023-05-05T19:35:53.925Z,2.38
2023-05-05T19:38:21.350Z,2.10
2023-05-05T19:40:48.901Z,2.53
2023-05-05T19:43:16.304Z,2.65
2023-05-05T19:45:43.564Z,2.72
2023-05-05T19:48:11.272Z,2.90
2023-05-05T19:50:38.585Z,2.63
2023-05-05T19:53:06.004Z,2.80
2023-05-05T19:55:33.440Z,2.67
2023-05-05T19:58:00.790Z,2.58
2023-05-05T20:00:28.197Z,2.38
2023-05-05T20:02:55.704Z,2.55
2023-05-05T20:05:23.085Z,2.58
2023-05-05T20:07:51.374Z,3.17
2023-05-05T20:10:18.913Z,2.78
2023-05-05T20:12:49.149Z,2.35
2023-05-05T20:15:19.928Z,2.75
2023-05-05T20:17:48.370Z,2.90
2023-05-05T20:20:18.838Z,2.58
2023-05-05T20:22:47.993Z,2.60
2023-05-05T20:25:16.504Z,2.47
2023-05-05T20:27:45.676Z,2.70
2023-05-05T20:30:13.531Z,1.98
2023-05-05T20:32:41.578Z,3.60
2023-05-05T20:35:09.481Z,3.78
2023-05-05T20:37:36.946Z,4.22
2023-05-05T20:40:04.469Z,3.53
2023-05-05T20:42:31.944Z,3.10
2023-05-05T20:45:02.167Z,2.97
2023-05-05T20:47:29.619Z,2.75
2023-05-05T20:49:57.027Z,2.47
2023-05-05T20:52:24.509Z,2.35
2023-05-05T20:54:51.791Z,1.90
2023-05-05T20:57:19.191Z,2.38
2023-05-05T20:59:46.543Z,2.47
2023-05-05T21:02:13.965Z,3.03
2023-05-05T21:04:41.240Z,2.38
2023-05-05T21:07:08.829Z,2.70
2023-05-05T21:09:36.422Z,2.10
2023-05-05T21:12:04.100Z,2.03
2023-05-05T21:14:31.538Z,2.10
2023-05-05T21:16:59.003Z,2.03
2023-05-05T21:19:26.344Z,2.03
2023-05-05T21:21:53.941Z,2.60
2023-05-05T21:24:21.584Z,2.40
2023-05-05T21:26:49.049Z,2.30
2023-05-05T21:29:16.392Z,2.40
2023-05-05T21:31:43.821Z,2.40
2023-05-05T21:34:11.571Z,2.40
2023-05-05T21:36:39.073Z,2.63
2023-05-05T21:39:06.324Z,2.53
2023-05-05T21:41:33.775Z,2.50
2023-05-05T21:44:01.293Z,2.83
2023-05-05T21:46:28.688Z,2.42
2023-05-05T21:48:56.262Z,2.70
2023-05-05T21:51:23.682Z,2.90
2023-05-05T21:53:50.938Z,3.08
2023-05-05T21:56:18.337Z,2.80
2023-05-05T21:58:46.187Z,3.10
2023-05-05T22:01:13.546Z,3.00
2023-05-05T22:03:43.865Z,2.70
2023-05-05T22:06:11.938Z,2.65
2023-05-05T22:08:39.192Z,2.40
2023-05-05T22:11:06.964Z,2.90
2023-05-05T22:13:34.321Z,2.42
2023-05-05T22:16:01.650Z,3.63
2023-05-05T22:18:28.912Z,2.90
2023-05-05T22:20:56.482Z,2.47
2023-05-05T22:23:23.833Z,2.85
2023-05-05T22:25:51.405Z,2.03
2023-05-05T22:28:18.805Z,2.45
2023-05-05T22:30:46.472Z,3.03
2023-05-05T22:33:13.884Z,2.80
2023-05-05T22:35:41.466Z,3.15
2023-05-05T22:38:08.901Z,4.00
2023-05-05T22:40:36.398Z,4.22
2023-05-05T22:43:03.766Z,4.45
2023-05-05T22:45:31.311Z,4.00
2023-05-05T22:47:58.891Z,4.60
2023-05-05T22:50:26.421Z,4.20
2023-05-05T22:52:53.844Z,3.80
2023-05-05T22:55:21.432Z,4.40
2023-05-05T22:57:50.152Z,3.83
2023-05-05T23:00:17.638Z,3.80
2023-05-05T23:02:44.995Z,4.05
2023-05-05T23:05:12.791Z,4.05
2023-05-05T23:07:40.232Z,4.15
2023-05-05T23:10:08.134Z,4.13
2023-05-05T23:12:35.582Z,4.38
2023-05-05T23:15:04.482Z,3.38
2023-05-05T23:17:31.863Z,3.97
2023-05-05T23:19:59.425Z,2.78
2023-05-05T23:22:26.653Z,2.70
2023-05-05T23:24:53.991Z,3.03
2023-05-05T23:27:21.284Z,2.13
2023-05-05T23:29:48.674Z,2.63
2023-05-05T23:32:15.906Z,2.80
2023-05-05T23:34:43.350Z,2.60
2023-05-05T23:37:10.775Z,2.65
2023-05-05T23:39:38.207Z,2.40
2023-05-05T23:42:05.614Z,2.50
2023-05-05T23:44:33.035Z,2.50
2023-05-05T23:47:00.568Z,2.67
2023-05-05T23:49:28.005Z,2.30
2023-05-05T23:51:55.835Z,2.38
2023-05-05T23:54:23.163Z,2.53
2023-05-05T23:56:50.516Z,2.42
2023-05-05T23:59:17.995Z,2.35
